Time;durP1;ratioP1;P1;durP2;ratioP2;P2;SDS_P1;SDS_P2;PMS_P1;PMS_P2;Temp;Humidity;BMP_temperature;BMP_pressure;BME280_temperature;BME280_humidity;BME280_pressure;Samples;Min_cycle;Max_cycle;Signal;HPM_P1;HPM_P2
2022/03/29 00:00:53;;;;;;;45.10;20.63;;;20.60;99.90;;;;;;5041012;22;20499;-56
2022/03/29 00:03:19;;;;;;;37.42;20.52;;;20.60;99.90;;;;;;5030769;28;20026;-57
2022/03/29 00:05:45;;;;;;;38.97;19.60;;;20.60;99.90;;;;;;5031176;28;20030;-58
2022/03/29 00:08:10;;;;;;;39.47;20.30;;;20.50;99.90;;;;;;5030919;28;20018;-57
2022/03/29 00:10:36;;;;;;;40.67;20.35;;;20.60;99.90;;;;;;5027067;28;20029;-56
2022/03/29 00:13:02;;;;;;;36.88;19.80;;;20.50;99.90;;;;;;5028003;28;20067;-57
2022/03/29 00:15:28;;;;;;;32.67;20.58;;;20.50;99.90;;;;;;5027139;28;20374;-57
2022/03/29 00:17:54;;;;;;;36.25;21.33;;;20.50;99.90;;;;;;5012743;28;20028;-57
2022/03/29 00:20:21;;;;;;;34.88;19.83;;;20.50;99.90;;;;;;5011982;28;20026;-57
2022/03/29 00:22:47;;;;;;;36.60;19.02;;;20.50;99.90;;;;;;5026929;28;20376;-57
2022/03/29 00:25:15;;;;;;;39.25;19.35;;;20.50;99.90;;;;;;5028820;28;20109;-57
2022/03/29 00:27:41;;;;;;;36.50;19.83;;;20.50;99.90;;;;;;5021453;28;20397;-58
2022/03/29 00:30:09;;;;;;;36.60;18.05;;;20.50;99.90;;;;;;5027203;28;20032;-58
2022/03/29 00:32:35;;;;;;;33.60;19.42;;;20.50;99.90;;;;;;5029532;28;20095;-58
2022/03/29 00:35:02;;;;;;;33.85;18.30;;;20.40;99.90;;;;;;5031119;28;20024;-57
2022/03/29 00:37:28;;;;;;;31.38;18.75;;;20.40;99.90;;;;;;5031016;28;20061;-57
2022/03/29 00:39:54;;;;;;;32.75;18.60;;;20.40;99.90;;;;;;5031126;28;20026;-57
2022/03/29 00:42:19;;;;;;;38.90;19.42;;;20.40;99.90;;;;;;5032478;28;20075;-57
2022/03/29 00:44:45;;;;;;;34.88;19.02;;;20.50;99.90;;;;;;5031048;28;20033;-57
2022/03/29 00:47:11;;;;;;;31.67;17.92;;;20.40;99.90;;;;;;5032565;28;20068;-58
2022/03/29 00:49:37;;;;;;;36.33;19.10;;;20.40;99.90;;;;;;5032187;28;20427;-58
2022/03/29 00:52:04;;;;;;;31.85;17.80;;;20.40;99.90;;;;;;5031362;28;20045;-59
2022/03/29 00:54:32;;;;;;;;;;;20.40;99.90;;;;;;5031297;28;20393;-58
2022/03/29 00:56:58;;;;;;;;;;;20.40;99.90;;;;;;5032600;28;20395;-58
2022/03/29 00:59:25;;;;;;;33.75;18.25;;;20.40;99.90;;;;;;5032504;28;19909;-58
2022/03/29 01:01:51;;;;;;;33.42;18.35;;;20.40;99.90;;;;;;5031815;28;20034;-58
2022/03/29 01:04:23;;;;;;;38.77;18.87;;;20.40;99.90;;;;;;5031934;28;20083;-58
2022/03/29 01:06:49;;;;;;;32.53;17.08;;;20.40;99.90;;;;;;5031794;28;20267;-57
2022/03/29 01:09:15;;;;;;;31.02;17.52;;;20.40;99.90;;;;;;5028668;28;20489;-57
2022/03/29 01:11:42;;;;;;;33.60;18.25;;;20.30;99.90;;;;;;5012175;28;20030;-57
2022/03/29 01:14:09;;;;;;;32.30;17.63;;;20.30;99.90;;;;;;5011986;28;20025;-57
2022/03/29 01:19:21;;;;;;;42.28;18.48;;;20.30;99.90;;;;;;5021307;28;20511;-58
2022/03/29 01:21:58;;;;;;;35.22;18.08;;;20.30;99.90;;;;;;5025499;28;20034;-57
2022/03/29 01:24:28;;;;;;;31.95;19.20;;;20.30;99.90;;;;;;5030630;28;20500;-57
2022/03/29 01:26:57;;;;;;;33.72;17.55;;;20.30;99.90;;;;;;5030494;28;20148;-57
2022/03/29 01:29:23;;;;;;;32.22;17.80;;;20.30;99.90;;;;;;5030571;28;20116;-57
2022/03/29 01:31:51;;;;;;;29.13;18.08;;;20.30;99.90;;;;;;5030259;28;20029;-57
2022/03/29 01:34:21;;;;;;;37.80;17.52;;;20.30;99.90;;;;;;5029318;28;20041;-57
2022/03/29 01:36:48;;;;;;;31.48;16.23;;;20.30;99.90;;;;;;5028554;28;20022;-57
2022/03/29 01:39:14;;;;;;;32.13;18.00;;;20.30;99.90;;;;;;5024838;28;20029;-57
2022/03/29 01:41:40;;;;;;;29.13;16.48;;;20.30;99.90;;;;;;5029223;28;20404;-57
2022/03/29 01:44:10;;;;;;;31.30;17.30;;;20.30;99.90;;;;;;5029805;28;20037;-57
2022/03/29 01:46:36;;;;;;;30.20;16.65;;;20.20;99.90;;;;;;5031218;28;20026;-57
2022/03/29 01:49:03;;;;;;;31.90;16.88;;;20.30;99.90;;;;;;5030885;28;20443;-57
2022/03/29 01:51:30;;;;;;;36.35;16.90;;;20.20;99.90;;;;;;5031203;28;20088;-57
2022/03/29 01:53:57;;;;;;;30.60;16.80;;;20.20;99.90;;;;;;5031140;28;20045;-57
2022/03/29 01:56:27;;;;;;;;;;;20.20;99.90;;;;;;5031603;28;20022;-57
2022/03/29 01:58:53;;;;;;;31.23;18.08;;;20.20;99.90;;;;;;5031241;28;19966;-57
2022/03/29 02:01:20;;;;;;;31.35;17.50;;;20.30;99.90;;;;;;5042664;23;20049;-48
2022/03/29 02:03:46;;;;;;;30.75;16.83;;;20.20;99.90;;;;;;5031419;28;20033;-48
2022/03/29 02:06:12;;;;;;;28.00;16.92;;;20.20;99.90;;;;;;5031263;28;20388;-48
2022/03/29 02:08:37;;;;;;;33.92;16.75;;;20.20;99.90;;;;;;5031129;28;20388;-48
2022/03/29 02:11:03;;;;;;;29.95;16.08;;;20.20;99.90;;;;;;5031058;28;20430;-49
2022/03/29 02:13:29;;;;;;;26.30;15.93;;;20.20;99.90;;;;;;5031058;28;20041;-48
2022/03/29 02:15:55;;;;;;;32.60;16.25;;;20.20;99.90;;;;;;5031110;28;20025;-49
2022/03/29 02:18:20;;;;;;;30.55;15.50;;;20.20;99.90;;;;;;5031104;28;20110;-48
2022/03/29 02:20:47;;;;;;;28.58;16.48;;;20.20;99.90;;;;;;5031364;28;20036;-48
2022/03/29 02:23:15;;;;;;;28.85;15.55;;;20.20;99.90;;;;;;5030991;28;20516;-48
2022/03/29 02:25:45;;;;;;;28.52;16.30;;;20.20;99.90;;;;;;5029816;28;20029;-48
2022/03/29 02:28:11;;;;;;;28.10;15.68;;;20.20;99.90;;;;;;5031016;28;20033;-47
2022/03/29 02:30:36;;;;;;;27.55;16.40;;;20.20;99.90;;;;;;5031284;28;20048;-48
2022/03/29 02:33:03;;;;;;;28.67;15.88;;;20.20;99.90;;;;;;5030906;28;20115;-48
2022/03/29 02:35:29;;;;;;;32.33;15.87;;;20.20;99.90;;;;;;5031090;28;20075;-48
2022/03/29 02:37:55;;;;;;;25.88;15.68;;;20.20;99.90;;;;;;5030787;28;20029;-48
2022/03/29 02:40:21;;;;;;;26.70;15.70;;;20.20;99.90;;;;;;5031125;28;20469;-48
2022/03/29 02:42:48;;;;;;;28.17;15.02;;;20.20;99.90;;;;;;5031088;28;20040;-48
2022/03/29 02:45:22;;;;;;;31.10;15.32;;;20.20;99.90;;;;;;5031174;28;20025;-48
2022/03/29 02:47:53;;;;;;;24.73;15.60;;;20.20;99.90;;;;;;5034738;28;20034;-48
2022/03/29 02:50:20;;;;;;;25.83;14.23;;;20.20;99.90;;;;;;5034635;28;20117;-48
2022/03/29 02:52:48;;;;;;;27.00;14.03;;;20.20;99.90;;;;;;5034350;28;20033;-48
2022/03/29 02:55:15;;;;;;;26.95;15.02;;;20.20;99.90;;;;;;5034372;28;20029;-48
2022/03/29 02:57:43;;;;;;;28.17;16.17;;;20.20;99.90;;;;;;5034432;28;20022;-48
2022/03/29 03:00:12;;;;;;;28.67;14.38;;;20.20;99.90;;;;;;5046463;22;20052;-51
2022/03/29 03:02:37;;;;;;;26.38;15.40;;;20.20;99.90;;;;;;5034193;28;20041;-51
2022/03/29 03:05:04;;;;;;;26.60;14.93;;;20.20;99.90;;;;;;5034614;28;20527;-53
2022/03/29 03:07:30;;;;;;;34.03;16.65;;;20.20;99.90;;;;;;5034141;28;20559;-53
2022/03/29 03:09:55;;;;;;;26.20;14.57;;;20.20;99.90;;;;;;5034143;28;20025;-53
2022/03/29 03:12:21;;;;;;;30.83;14.27;;;20.20;99.90;;;;;;5034306;28;20034;-53
2022/03/29 03:14:48;;;;;;;23.50;13.27;;;20.20;99.90;;;;;;5034034;28;20172;-53
2022/03/29 03:17:14;;;;;;;22.02;13.75;;;20.20;99.90;;;;;;5034000;28;20401;-53
2022/03/29 03:19:39;;;;;;;25.13;14.18;;;20.20;99.90;;;;;;5033870;28;20033;-53
2022/03/29 03:22:05;;;;;;;28.65;14.50;;;20.20;99.90;;;;;;5033809;28;20049;-53
2022/03/29 03:24:31;;;;;;;28.50;13.77;;;20.20;99.90;;;;;;5033996;28;20025;-53
2022/03/29 03:26:57;;;;;;;25.90;15.23;;;20.20;99.90;;;;;;5033856;28;20028;-53
2022/03/29 03:29:23;;;;;;;23.02;13.30;;;20.20;99.90;;;;;;5034013;28;20108;-53
2022/03/29 03:31:49;;;;;;;23.58;13.93;;;20.20;99.90;;;;;;5033720;28;20040;-53
2022/03/29 03:34:15;;;;;;;26.70;13.55;;;20.20;99.90;;;;;;5033727;28;20029;-53
2022/03/29 03:36:41;;;;;;;22.17;13.75;;;20.20;99.90;;;;;;5033590;28;20056;-53
2022/03/29 03:39:07;;;;;;;27.38;14.57;;;20.20;99.90;;;;;;5032204;28;20049;-53
2022/03/29 03:41:33;;;;;;;21.42;12.95;;;20.10;99.90;;;;;;5033623;28;20037;-53
2022/03/29 03:43:58;;;;;;;27.23;13.70;;;20.10;99.90;;;;;;5033491;28;20033;-53
2022/03/29 03:46:25;;;;;;;24.70;12.85;;;20.20;99.90;;;;;;5033741;28;20461;-53
2022/03/29 03:48:50;;;;;;;27.13;12.90;;;20.20;99.90;;;;;;5033494;28;20415;-53
2022/03/29 03:51:16;;;;;;;20.02;13.68;;;20.20;99.90;;;;;;5033411;28;20083;-53
2022/03/29 03:53:42;;;;;;;21.95;12.90;;;20.20;99.90;;;;;;5033290;28;20091;-53
2022/03/29 03:56:08;;;;;;;23.10;13.25;;;20.20;99.90;;;;;;5033398;28;20056;-53
2022/03/29 03:58:33;;;;;;;23.20;12.43;;;20.20;99.90;;;;;;5032724;28;20021;-53
2022/03/29 04:00:59;;;;;;;29.02;13.50;;;20.20;99.90;;;;;;5045606;23;20505;-58
2022/03/29 04:03:25;;;;;;;23.60;13.20;;;20.10;99.90;;;;;;5032237;28;20049;-56
2022/03/29 04:05:52;;;;;;;18.55;12.25;;;20.20;99.90;;;;;;5033052;28;20044;-58
2022/03/29 04:08:18;;;;;;;28.55;13.90;;;20.10;99.90;;;;;;5033128;28;20155;-55
2022/03/29 04:10:44;;;;;;;25.23;12.38;;;20.10;99.90;;;;;;5032880;28;20033;-56
2022/03/29 04:13:10;;;;;;;22.83;11.90;;;20.10;99.90;;;;;;5032831;28;20056;-55
2022/03/29 04:15:36;;;;;;;24.20;11.50;;;20.10;99.90;;;;;;5032973;28;20493;-55
2022/03/29 04:18:02;;;;;;;27.75;13.30;;;20.10;99.90;;;;;;5032874;28;20036;-55
2022/03/29 04:20:29;;;;;;;22.67;12.60;;;20.10;99.90;;;;;;5033091;28;20428;-56
2022/03/29 04:22:56;;;;;;;22.92;13.07;;;20.10;99.90;;;;;;5031534;28;20026;-55
2022/03/29 04:25:22;;;;;;;18.90;12.00;;;20.10;99.90;;;;;;5032717;28;20049;-55
2022/03/29 04:27:48;;;;;;;24.50;13.18;;;20.10;99.90;;;;;;5032675;28;20136;-55
2022/03/29 04:30:14;;;;;;;25.77;13.30;;;20.10;99.90;;;;;;5032680;28;20121;-56
2022/03/29 04:32:40;;;;;;;24.17;12.70;;;20.10;99.90;;;;;;5032535;28;20456;-56
2022/03/29 04:35:06;;;;;;;23.40;12.82;;;20.10;99.90;;;;;;5031368;28;20041;-56
2022/03/29 04:37:32;;;;;;;24.95;12.52;;;20.10;99.90;;;;;;5032523;28;20424;-56
2022/03/29 04:39:58;;;;;;;22.95;13.75;;;20.10;99.90;;;;;;5032625;28;20025;-56
2022/03/29 04:42:24;;;;;;;20.63;11.32;;;20.10;99.90;;;;;;5032249;28;20469;-56
2022/03/29 04:44:49;;;;;;;22.75;11.95;;;20.10;99.90;;;;;;5032371;28;20029;-55
2022/03/29 04:47:15;;;;;;;26.48;12.70;;;20.10;99.90;;;;;;5032409;28;20055;-55
2022/03/29 04:49:41;;;;;;;23.38;12.35;;;20.10;99.90;;;;;;5032169;28;20052;-57
2022/03/29 04:52:07;;;;;;;22.17;12.98;;;20.10;99.90;;;;;;5032162;28;20037;-57
2022/03/29 04:54:33;;;;;;;21.05;11.77;;;20.10;99.90;;;;;;5030947;28;20028;-57
2022/03/29 04:57:00;;;;;;;18.02;11.43;;;20.10;99.90;;;;;;5032577;28;20032;-57
2022/03/29 04:59:26;;;;;;;23.40;12.35;;;20.10;99.90;;;;;;5032122;28;20056;-57
2022/03/29 05:01:52;;;;;;;21.92;13.02;;;20.10;99.90;;;;;;5030620;28;20041;-57
2022/03/29 05:04:19;;;;;;;21.60;12.48;;;20.10;99.90;;;;;;5031988;28;20166;-57
2022/03/29 05:06:44;;;;;;;21.23;11.90;;;20.00;99.90;;;;;;5032007;28;20087;-57
2022/03/29 05:09:10;;;;;;;19.35;11.30;;;20.10;99.90;;;;;;5031009;28;20033;-57
2022/03/29 05:11:36;;;;;;;21.85;12.68;;;20.00;99.90;;;;;;5031896;28;20014;-57
2022/03/29 05:14:02;;;;;;;22.60;13.05;;;20.00;99.90;;;;;;5031817;28;20099;-57
2022/03/29 05:16:28;;;;;;;19.10;11.98;;;20.00;99.90;;;;;;5031944;28;20021;-57
2022/03/29 05:18:54;;;;;;;18.52;11.45;;;20.00;99.90;;;;;;5031596;28;20476;-57
2022/03/29 05:21:20;;;;;;;27.05;12.77;;;20.00;99.90;;;;;;5031599;28;20037;-57
2022/03/29 05:23:46;;;;;;;23.55;11.48;;;20.00;99.90;;;;;;5031704;28;20021;-57
2022/03/29 05:26:12;;;;;;;19.80;11.80;;;20.10;99.90;;;;;;5031656;28;20428;-57
2022/03/29 05:28:38;;;;;;;22.25;12.02;;;20.00;99.90;;;;;;5031557;28;20147;-55
2022/03/29 05:31:05;;;;;;;19.95;11.30;;;20.00;99.90;;;;;;5031506;28;20057;-57
2022/03/29 05:33:30;;;;;;;21.75;11.68;;;20.00;99.90;;;;;;5031702;28;20045;-57
2022/03/29 05:35:57;;;;;;;24.77;12.88;;;20.00;99.90;;;;;;5031376;28;20454;-57
2022/03/29 05:38:23;;;;;;;26.83;12.40;;;20.00;99.90;;;;;;5031622;28;20396;-57
2022/03/29 05:40:49;;;;;;;22.30;11.43;;;20.00;99.90;;;;;;5031329;28;20021;-57
2022/03/29 05:43:15;;;;;;;25.63;12.27;;;20.00;99.90;;;;;;5029994;28;20092;-57
2022/03/29 05:45:40;;;;;;;19.30;12.02;;;20.00;99.90;;;;;;5031600;28;20052;-57
2022/03/29 05:50:52;;;;;;;22.67;11.73;;;20.00;99.90;;;;;;5031296;28;20435;-58
2022/03/29 05:53:18;;;;;;;19.00;11.07;;;20.00;99.90;;;;;;5031120;28;20041;-58
2022/03/29 05:55:45;;;;;;;19.95;11.07;;;20.00;99.90;;;;;;5031349;28;20476;-58
2022/03/29 05:58:12;;;;;;;21.67;12.30;;;20.00;99.90;;;;;;5031408;28;20025;-57
2022/03/29 06:00:38;;;;;;;19.25;11.15;;;20.00;99.90;;;;;;5031147;28;20042;-58
2022/03/29 06:03:04;;;;;;;17.85;10.52;;;19.90;99.90;;;;;;5031187;28;20524;-57
2022/03/29 06:05:29;;;;;;;20.13;11.55;;;19.90;99.90;;;;;;5031352;28;20022;-57
2022/03/29 06:07:55;;;;;;;22.10;11.85;;;19.90;99.90;;;;;;5031121;28;20037;-56
2022/03/29 06:10:21;;;;;;;26.63;12.25;;;19.90;99.90;;;;;;5031090;28;20105;-57
2022/03/29 06:12:47;;;;;;;22.30;11.85;;;19.90;99.90;;;;;;5030988;28;20504;-57
2022/03/29 06:15:15;;;;;;;20.30;11.48;;;19.90;99.90;;;;;;5030957;28;20492;-57
2022/03/29 06:17:41;;;;;;;;;;;19.90;99.90;;;;;;5031258;28;20373;-56
2022/03/29 06:20:09;;;;;;;16.35;10.63;;;19.90;99.90;;;;;;5030864;28;19909;-57
2022/03/29 06:22:44;;;;;;;18.92;10.02;;;19.90;99.90;;;;;;5035067;28;20021;-57
2022/03/29 06:25:12;;;;;;;14.77;9.93;;;19.90;99.90;;;;;;5035090;28;20030;-57
2022/03/29 06:27:37;;;;;;;22.90;12.38;;;19.90;99.90;;;;;;5035094;28;20104;-57
2022/03/29 06:30:05;;;;;;;18.58;10.60;;;19.90;99.90;;;;;;5035031;28;20068;-57
2022/03/29 06:32:31;;;;;;;20.25;10.15;;;19.90;99.90;;;;;;5034938;28;20029;-57
2022/03/29 06:34:56;;;;;;;23.27;11.98;;;19.90;99.90;;;;;;5034826;28;20056;-56
2022/03/29 06:37:22;;;;;;;19.05;10.98;;;19.90;99.90;;;;;;5034635;28;20132;-56
2022/03/29 06:39:48;;;;;;;22.33;10.57;;;19.90;99.90;;;;;;5034603;28;20022;-57
2022/03/29 06:42:18;;;;;;;18.02;10.60;;;19.90;99.90;;;;;;5034598;28;20063;-57
2022/03/29 06:44:47;;;;;;;17.42;10.10;;;19.90;99.90;;;;;;5034595;28;20443;-57
2022/03/29 06:47:15;;;;;;;21.83;11.73;;;19.90;99.90;;;;;;5034488;28;20040;-57
2022/03/29 06:49:41;;;;;;;;;;;19.90;99.90;;;;;;5033680;28;20021;-57
2022/03/29 06:52:07;;;;;;;23.43;11.67;;;19.90;99.90;;;;;;5034566;28;19920;-57
2022/03/29 06:54:33;;;;;;;16.65;10.02;;;19.90;99.90;;;;;;5034498;28;20025;-57
2022/03/29 06:56:58;;;;;;;19.98;11.20;;;19.90;99.90;;;;;;5033128;28;20087;-56
2022/03/29 06:59:24;;;;;;;22.45;11.00;;;19.90;99.90;;;;;;5033193;28;20104;-57
2022/03/29 07:01:50;;;;;;;20.58;10.45;;;19.90;99.90;;;;;;5034358;28;20037;-57
2022/03/29 07:04:16;;;;;;;22.65;11.00;;;19.90;99.90;;;;;;5034395;28;20024;-57
2022/03/29 07:06:42;;;;;;;20.10;10.15;;;19.90;99.90;;;;;;5034307;28;20602;-57
2022/03/29 07:11:53;;;;;;;19.42;10.43;;;19.90;99.90;;;;;;5034525;28;20037;-58
2022/03/29 07:14:19;;;;;;;20.67;11.30;;;19.80;99.90;;;;;;5034018;28;20032;-57
2022/03/29 07:16:45;;;;;;;22.00;11.88;;;19.90;99.90;;;;;;5032765;28;20022;-57
2022/03/29 07:19:11;;;;;;;17.83;10.20;;;19.90;99.90;;;;;;5033864;28;20036;-57
2022/03/29 07:21:39;;;;;;;19.42;10.75;;;19.90;99.90;;;;;;5033990;28;20029;-57
2022/03/29 07:24:06;;;;;;;17.50;11.30;;;19.90;99.90;;;;;;5034141;28;20024;-56
2022/03/29 07:26:33;;;;;;;20.88;12.02;;;19.90;99.90;;;;;;5033870;28;20040;-57
2022/03/29 07:28:59;;;;;;;18.60;10.53;;;19.90;99.90;;;;;;5033924;28;20507;-56
2022/03/29 07:31:24;;;;;;;24.40;11.85;;;19.90;99.90;;;;;;5033550;28;20026;-56
2022/03/29 07:33:50;;;;;;;21.42;12.07;;;19.90;99.90;;;;;;5031606;28;20033;-56
2022/03/29 07:36:16;;;;;;;21.75;11.95;;;19.90;99.90;;;;;;5033591;28;20026;-56
2022/03/29 07:38:42;;;;;;;21.02;11.18;;;19.90;99.90;;;;;;5033597;28;20032;-56
2022/03/29 07:41:08;;;;;;;21.42;10.82;;;19.90;99.90;;;;;;5033615;28;20076;-56
2022/03/29 07:43:33;;;;;;;21.25;12.27;;;19.90;99.90;;;;;;5033531;28;20035;-56
2022/03/29 07:45:59;;;;;;;18.02;10.50;;;19.90;99.90;;;;;;5033524;28;20025;-56
2022/03/29 07:48:25;;;;;;;18.25;9.75;;;19.90;99.90;;;;;;5033277;28;20065;-56
2022/03/29 07:50:51;;;;;;;18.05;10.48;;;19.90;99.90;;;;;;5033099;28;20025;-56
2022/03/29 07:53:17;;;;;;;17.80;9.82;;;19.90;99.90;;;;;;5033173;28;20040;-56
2022/03/29 07:55:43;;;;;;;19.83;10.32;;;19.90;99.90;;;;;;5033239;28;20095;-57
2022/03/29 07:58:09;;;;;;;22.27;11.65;;;19.90;99.90;;;;;;5033389;28;20022;-57
2022/03/29 08:00:35;;;;;;;16.92;10.23;;;19.90;99.90;;;;;;5032989;28;20049;-56
2022/03/29 08:03:09;;;;;;;21.05;10.95;;;19.90;99.90;;;;;;5033035;28;20385;-57
2022/03/29 08:05:36;;;;;;;17.13;9.95;;;19.90;99.90;;;;;;5032972;28;20024;-57
2022/03/29 08:08:03;;;;;;;21.75;11.48;;;19.90;99.90;;;;;;5032972;28;20044;-57
2022/03/29 08:10:30;;;;;;;18.48;9.88;;;19.90;99.90;;;;;;5033010;28;20048;-57
2022/03/29 08:13:00;;;;;;;22.05;10.85;;;19.90;99.90;;;;;;5031483;28;20500;-57
2022/03/29 08:15:28;;;;;;;16.05;10.40;;;19.90;99.90;;;;;;5032761;28;20380;-56
2022/03/29 08:17:55;;;;;;;18.30;9.90;;;19.90;99.90;;;;;;5032865;28;20370;-57
2022/03/29 08:20:21;;;;;;;18.23;11.30;;;20.00;99.90;;;;;;5032977;28;20100;-57
2022/03/29 08:22:47;;;;;;;22.05;10.93;;;19.90;99.90;;;;;;5032657;28;20032;-57
2022/03/29 08:25:15;;;;;;;17.63;11.10;;;20.00;99.90;;;;;;5032760;28;20026;-57
2022/03/29 08:27:45;;;;;;;17.63;11.48;;;19.90;99.90;;;;;;5032749;28;20100;-56
2022/03/29 08:30:12;;;;;;;21.55;12.07;;;20.00;99.90;;;;;;5032628;28;20030;-56
2022/03/29 08:32:38;;;;;;;21.83;11.00;;;20.00;99.90;;;;;;5032413;28;20121;-57
2022/03/29 08:35:07;;;;;;;19.20;11.52;;;20.00;99.90;;;;;;5031311;28;20108;-57
2022/03/29 08:37:35;;;;;;;24.02;11.98;;;20.00;99.90;;;;;;5032401;28;20101;-57
2022/03/29 08:40:06;;;;;;;21.48;11.68;;;20.00;99.90;;;;;;5032258;28;20079;-58
2022/03/29 08:42:32;;;;;;;18.42;10.70;;;20.00;99.90;;;;;;5032426;28;20503;-58
2022/03/29 08:44:59;;;;;;;16.75;9.82;;;20.00;99.90;;;;;;5032424;28;20473;-57
2022/03/29 08:47:26;;;;;;;15.63;11.13;;;20.00;99.90;;;;;;5032279;28;20030;-58
2022/03/29 08:49:52;;;;;;;17.10;11.05;;;20.00;99.90;;;;;;5032480;28;20029;-58
2022/03/29 08:52:20;;;;;;;18.05;11.70;;;20.10;99.90;;;;;;5032017;28;20036;-58
2022/03/29 08:54:47;;;;;;;24.00;11.63;;;20.00;99.90;;;;;;5032186;28;20385;-58
2022/03/29 08:57:14;;;;;;;22.98;11.88;;;20.00;99.90;;;;;;5032372;28;20021;-58
2022/03/29 08:59:41;;;;;;;19.58;10.90;;;20.00;99.90;;;;;;5032455;28;20034;-57
2022/03/29 09:02:18;;;;;;;18.02;11.32;;;20.00;99.90;;;;;;5031093;28;20032;-57
2022/03/29 09:04:44;;;;;;;15.57;10.77;;;20.00;99.90;;;;;;5032271;28;20037;-57
2022/03/29 09:07:11;;;;;;;17.83;11.15;;;20.00;99.90;;;;;;5030887;28;20587;-57
2022/03/29 09:09:40;;;;;;;18.77;10.85;;;20.00;99.90;;;;;;5032007;28;20044;-58
2022/03/29 09:12:14;;;;;;;25.38;14.93;;;20.10;99.90;;;;;;5031792;28;20123;-58
2022/03/29 09:15:00;;;;;;;23.60;13.75;;;20.10;99.90;;;;;;5031783;28;20389;-59
2022/03/29 09:17:32;;;;;;;34.95;21.63;;;20.00;99.90;;;;;;5031879;28;20030;-58
2022/03/29 09:20:23;;;;;;;31.25;19.40;;;20.00;99.90;;;;;;5031578;28;20029;-57
2022/03/29 09:22:52;;;;;;;25.17;17.17;;;20.00;99.90;;;;;;5031178;28;20041;-57
2022/03/29 09:25:23;;;;;;;25.30;17.83;;;20.00;99.90;;;;;;5031493;28;20074;-57
2022/03/29 09:28:02;;;;;;;22.60;14.73;;;20.00;99.90;;;;;;5031653;28;20033;-57
2022/03/29 09:30:38;;;;;;;27.95;16.88;;;20.00;99.90;;;;;;5031611;28;20075;-57
2022/03/29 09:33:16;;;;;;;29.52;16.73;;;20.00;99.90;;;;;;5031697;28;20041;-56
2022/03/29 09:35:58;;;;;;;21.83;15.90;;;20.00;99.90;;;;;;5030043;28;20044;-56
2022/03/29 09:38:35;;;;;;;29.83;16.92;;;20.10;99.90;;;;;;5031408;28;20025;-55
2022/03/29 09:41:03;;;;;;;29.63;16.83;;;20.10;99.90;;;;;;5031488;28;20108;-56
2022/03/29 09:43:30;;;;;;;28.60;17.20;;;20.00;99.90;;;;;;5030127;28;20092;-57
2022/03/29 09:46:01;;;;;;;32.47;18.45;;;20.00;99.90;;;;;;5030091;28;20028;-57
2022/03/29 09:48:42;;;;;;;27.52;17.73;;;20.00;99.90;;;;;;5031163;28;20384;-58
2022/03/29 09:51:08;;;;;;;28.40;17.27;;;20.00;99.90;;;;;;5031391;28;20049;-58
2022/03/29 09:53:38;;;;;;;30.00;18.83;;;20.00;99.90;;;;;;5031260;28;20085;-58
2022/03/29 09:56:06;;;;;;;30.35;19.70;;;20.00;99.90;;;;;;5030883;28;20052;-57
2022/03/29 09:58:31;;;;;;;;;;;20.00;99.90;;;;;;5031777;28;20032;-57
2022/03/29 10:00:58;;;;;;;28.17;19.25;;;20.00;99.90;;;;;;5031180;28;19995;-58
2022/03/29 10:03:25;;;;;;;31.17;18.83;;;20.10;99.90;;;;;;5031106;28;20076;-58
2022/03/29 10:05:52;;;;;;;32.92;19.20;;;20.00;99.90;;;;;;5031090;28;20171;-57
2022/03/29 10:11:09;;;;;;;32.63;18.63;;;20.00;99.90;;;;;;5031310;28;20024;-57
2022/03/29 10:13:36;;;;;;;31.98;19.45;;;20.00;99.90;;;;;;5031027;28;20030;-57
2022/03/29 10:16:03;;;;;;;27.88;17.63;;;20.00;99.90;;;;;;5031046;28;20037;-57
2022/03/29 10:18:28;;;;;;;30.52;18.58;;;20.00;99.90;;;;;;5031116;28;20072;-58
2022/03/29 10:20:56;;;;;;;31.55;19.00;;;20.00;99.90;;;;;;5030951;28;20045;-57
2022/03/29 10:23:24;;;;;;;25.58;17.85;;;20.00;99.90;;;;;;5031062;28;20416;-57
2022/03/29 10:25:54;;;;;;;28.60;18.38;;;20.00;99.90;;;;;;5030983;28;20424;-57
2022/03/29 10:28:21;;;;;;;29.98;18.67;;;20.10;99.90;;;;;;5030995;28;20034;-57
2022/03/29 10:30:47;;;;;;;35.42;21.60;;;20.00;99.90;;;;;;5031134;28;20030;-56
2022/03/29 10:33:27;;;;;;;38.53;25.70;;;20.00;99.90;;;;;;5030675;28;20120;-57
2022/03/29 10:36:06;;;;;;;36.03;21.40;;;20.10;99.90;;;;;;5030753;28;20113;-57
2022/03/29 10:38:47;;;;;;;31.98;21.33;;;20.00;99.90;;;;;;5030577;28;20050;-56
2022/03/29 10:41:31;;;;;;;35.42;20.92;;;20.10;99.90;;;;;;5030471;28;20358;-56
2022/03/29 10:44:04;;;;;;;33.90;22.23;;;20.00;99.90;;;;;;5030521;28;20040;-57
2022/03/29 10:46:38;;;;;;;34.50;21.73;;;20.00;99.90;;;;;;5030548;28;20021;-55
2022/03/29 10:49:31;;;;;;;32.65;20.70;;;20.00;99.90;;;;;;5030374;28;20735;-55
2022/03/29 10:52:05;;;;;;;35.53;21.77;;;20.00;99.90;;;;;;5030134;28;20396;-56
2022/03/29 10:54:33;;;;;;;33.22;21.25;;;20.00;99.90;;;;;;5030452;28;20061;-56
2022/03/29 10:57:03;;;;;;;;;;;20.10;99.90;;;;;;5031067;28;20029;-56
2022/03/29 10:59:31;;;;;;;32.33;21.15;;;20.10;99.90;;;;;;5030315;28;19999;-56
2022/03/29 11:02:11;;;;;;;;;;;20.10;99.90;;;;;;5031024;28;20026;-56
2022/03/29 11:04:57;;;;;;;40.10;23.70;;;20.10;99.90;;;;;;5030472;28;19912;-57
2022/03/29 11:07:22;;;;;;;49.80;29.20;;;20.10;99.90;;;;;;5030897;28;20075;-56
2022/03/29 11:10:13;;;;;;;74.78;44.90;;;20.10;99.90;;;;;;5034144;28;20059;-56
2022/03/29 11:12:40;;;;;;;55.20;33.88;;;20.10;99.90;;;;;;5034054;28;20512;-56
2022/03/29 11:15:24;;;;;;;48.85;30.77;;;20.20;99.90;;;;;;5034074;28;20056;-57
2022/03/29 11:18:01;;;;;;;52.90;32.92;;;20.20;99.90;;;;;;5034129;28;20436;-56
2022/03/29 11:20:42;;;;;;;50.38;30.10;;;20.10;99.90;;;;;;5033738;28;20060;-56
2022/03/29 11:23:11;;;;;;;51.22;31.85;;;20.20;99.90;;;;;;5033658;28;20091;-56
2022/03/29 11:25:42;;;;;;;51.95;31.42;;;20.20;99.90;;;;;;5033560;28;20041;-56
2022/03/29 11:28:16;;;;;;;56.63;33.58;;;20.20;99.90;;;;;;5033531;28;20022;-55
2022/03/29 11:30:42;;;;;;;53.83;34.80;;;20.20;99.90;;;;;;5033362;28;20024;-56
2022/03/29 11:33:10;;;;;;;62.77;35.47;;;20.20;99.90;;;;;;5033449;28;20038;-56
2022/03/29 11:35:37;;;;;;;;;;;20.20;99.90;;;;;;5034199;28;20259;-56
2022/03/29 11:38:12;;;;;;;69.15;39.55;;;20.20;99.90;;;;;;5032207;28;20276;-57
2022/03/29 11:40:38;;;;;;;63.97;38.65;;;20.20;99.90;;;;;;5033494;28;20060;-57
2022/03/29 11:43:06;;;;;;;58.53;39.67;;;20.20;99.90;;;;;;5033291;28;20040;-57
2022/03/29 11:45:40;;;;;;;;;;;20.20;99.90;;;;;;5033836;28;20048;-56
2022/03/29 11:48:12;;;;;;;63.83;39.65;;;20.20;99.90;;;;;;5033427;28;19905;-56
2022/03/29 11:50:52;;;;;;;71.47;43.88;;;20.20;99.90;;;;;;5033301;28;20076;-56
2022/03/29 11:53:23;;;;;;;68.30;43.10;;;20.20;99.90;;;;;;5033067;28;20037;-56
2022/03/29 11:56:09;;;;;;;66.90;40.95;;;20.20;99.90;;;;;;5033328;28;20470;-56
2022/03/29 11:58:49;;;;;;;65.30;42.05;;;20.20;99.90;;;;;;5033264;28;20282;-56
2022/03/29 12:01:21;;;;;;;66.00;42.25;;;20.20;99.90;;;;;;5032972;28;20052;-56
2022/03/29 12:03:54;;;;;;;71.13;45.72;;;20.20;99.90;;;;;;5033045;28;20021;-56
2022/03/29 12:06:21;;;;;;;70.55;43.65;;;20.20;99.90;;;;;;5033163;28;20037;-56
2022/03/29 12:08:54;;;;;;;69.80;43.40;;;20.10;99.90;;;;;;5032946;28;20349;-56
2022/03/29 12:11:42;;;;;;;67.70;43.70;;;20.20;99.90;;;;;;5033005;28;20130;-56
2022/03/29 12:14:11;;;;;;;68.18;42.42;;;20.10;99.90;;;;;;5032604;28;20047;-56
2022/03/29 12:16:42;;;;;;;65.00;42.47;;;20.20;99.90;;;;;;5032643;28;20036;-56
2022/03/29 12:19:18;;;;;;;64.70;41.25;;;20.10;99.90;;;;;;5032294;28;20071;-56
2022/03/29 12:21:49;;;;;;;63.63;41.35;;;20.10;99.90;;;;;;5032778;28;20025;-57
2022/03/29 12:24:16;;;;;;;67.13;41.20;;;20.10;99.90;;;;;;5032681;28;20025;-55
2022/03/29 12:26:47;;;;;;;61.20;38.72;;;20.10;99.90;;;;;;5032535;28;20021;-56
2022/03/29 12:29:16;;;;;;;57.35;38.75;;;20.10;99.90;;;;;;5014707;28;20659;-56
2022/03/29 12:31:43;;;;;;;62.58;41.42;;;20.10;99.90;;;;;;5032500;28;20377;-56
2022/03/29 12:34:12;;;;;;;61.53;39.38;;;20.20;99.90;;;;;;5032576;28;20029;-56
2022/03/29 12:36:40;;;;;;;69.43;40.38;;;20.10;99.90;;;;;;5032404;28;20025;-56
2022/03/29 12:39:07;;;;;;;63.03;38.60;;;20.10;99.90;;;;;;5032440;28;20155;-56
2022/03/29 12:41:47;;;;;;;;;;;20.10;99.90;;;;;;5032985;28;20021;-56
2022/03/29 12:44:26;;;;;;;61.60;39.25;;;20.20;99.90;;;;;;5032147;28;19920;-56
2022/03/29 12:46:52;;;;;;;68.22;38.65;;;20.20;99.90;;;;;;5032453;28;20029;-61